Terminal Aerodrome Forecast
Issued by NWS

Home | Current Version | Previous Version | Text Only | Print | Product List | Glossary Off
Versions: 1 2 3 4 5 6 7 8 9 10 11 12 13

000
FTUS43 KMPX 160520
TAFAXN
TAF
KAXN 160520Z 1606/1706 34010KT P6SM OVC012
     FM161200 34006KT P6SM SCT015
     FM161800 28008KT P6SM FEW150
     FM170000 23007KT P6SM BKN100=

USA.gov is the U.S. government's official web portal to all federal, state and local government web resources and services.